createdAt,value
2022-11-25T00:09:27.069Z,5.5
2022-11-25T00:19:27.903Z,5.7
2022-11-25T00:29:28.454Z,5.5
2022-11-25T00:39:29.449Z,5.2
2022-11-25T00:49:30.203Z,5.1
2022-11-25T00:59:30.481Z,5.2
2022-11-25T01:09:31.417Z,5.5
2022-11-25T01:19:31.757Z,5.8
2022-11-25T01:29:32.048Z,5.9
2022-11-25T01:39:33.244Z,6.1
2022-11-25T01:49:33.301Z,6.9
2022-11-25T01:59:33.757Z,6.9
2022-11-25T02:09:34.154Z,7
2022-11-25T02:19:34.878Z,7.3
2022-11-25T02:29:35.470Z,7.5
2022-11-25T02:39:36.353Z,7.8
2022-11-25T02:49:36.583Z,8
2022-11-25T02:59:37.334Z,8.1
2022-11-25T03:09:38.029Z,8.3
2022-11-25T03:19:38.658Z,8.3
2022-11-25T03:29:38.991Z,8.1
2022-11-25T03:39:39.311Z,7.9
2022-11-25T03:49:39.779Z,7.8
2022-11-25T03:59:40.784Z,7.7
2022-11-25T04:09:41.072Z,7.7
2022-11-25T04:19:41.845Z,7.9
2022-11-25T04:29:42.520Z,8.2
2022-11-25T04:39:42.861Z,8.3
2022-11-25T04:49:43.877Z,8.3
2022-11-25T04:59:44.185Z,8.5
2022-11-25T05:09:44.919Z,8.6
2022-11-25T05:19:45.329Z,8.6
2022-11-25T05:29:45.752Z,8.6
2022-11-25T05:39:46.544Z,8.7
2022-11-25T05:49:47.637Z,8.8
2022-11-25T05:59:47.994Z,8.8
2022-11-25T06:09:48.638Z,8.8
2022-11-25T06:19:48.801Z,8.8
2022-11-25T06:29:49.198Z,8.8
2022-11-25T06:39:49.435Z,8.7
2022-11-25T06:49:49.635Z,8.7
2022-11-25T06:59:50.357Z,8.7
2022-11-25T07:09:51.344Z,8.7
2022-11-25T07:19:51.817Z,8.6
2022-11-25T07:30:10.582Z,8.5
2022-11-25T07:39:52.870Z,8.5
2022-11-25T07:59:53.636Z,8.5
2022-11-25T08:09:54.257Z,8.5
2022-11-25T08:19:54.497Z,8.6
2022-11-25T08:29:55.449Z,8.6
2022-11-25T08:39:56.809Z,8.6
2022-11-25T08:49:57.146Z,8.7
2022-11-25T08:59:57.837Z,8.9
2022-11-25T09:09:58.913Z,9.2
2022-11-25T09:19:59.646Z,9.4
2022-11-25T09:30:00.010Z,9.7
2022-11-25T09:40:00.658Z,10
2022-11-25T09:50:01.322Z,10.2
2022-11-25T10:00:01.540Z,10.2
2022-11-25T10:10:01.962Z,10.3
2022-11-25T10:20:02.500Z,10.3
2022-11-25T10:30:03.556Z,10.9
2022-11-25T10:40:04.302Z,11.3
2022-11-25T10:50:05.106Z,11.5
2022-11-25T11:00:05.577Z,11.4
2022-11-25T11:10:06.341Z,11.6
2022-11-25T11:20:06.535Z,11.6
2022-11-25T11:30:07.016Z,11.5
2022-11-25T11:40:07.273Z,12
2022-11-25T11:50:07.604Z,12.1
2022-11-25T12:00:07.803Z,11.8
2022-11-25T12:10:08.871Z,12
2022-11-25T12:30:09.625Z,11.7
2022-11-25T12:40:10.598Z,11.8
2022-11-25T12:50:11.540Z,11.4
2022-11-25T13:00:39.681Z,11.4
2022-11-25T13:10:12.425Z,11.3
2022-11-25T13:20:12.914Z,11.3
2022-11-25T13:30:13.272Z,11.3
2022-11-25T13:40:14.057Z,11.2
2022-11-25T13:50:18.969Z,11.1
2022-11-25T14:00:15.854Z,11.1
2022-11-25T14:10:16.207Z,11.1
2022-11-25T14:20:17.007Z,11.1
2022-11-25T14:30:17.986Z,11.1
2022-11-25T14:40:18.530Z,10.9
2022-11-25T14:50:34.070Z,10.9
2022-11-25T15:00:20.020Z,10.9
2022-11-25T15:10:20.857Z,10.8
2022-11-25T15:20:21.866Z,10.8
2022-11-25T15:30:22.734Z,10.8
2022-11-25T15:40:23.167Z,10.7
2022-11-25T16:00:25.052Z,10.6
2022-11-25T16:10:25.848Z,10.6
2022-11-25T16:20:26.649Z,10.4
2022-11-25T16:30:27.405Z,10.3
2022-11-25T16:40:28.034Z,10.1
2022-11-25T16:50:28.909Z,9.8
2022-11-25T17:00:29.585Z,9.9
2022-11-25T17:10:29.953Z,9.8
2022-11-25T17:20:30.769Z,9.6
2022-11-25T17:30:31.308Z,9.5
2022-11-25T17:40:31.551Z,9.6
2022-11-25T17:50:32.138Z,9.6
2022-11-25T18:00:32.406Z,9.5
2022-11-25T18:10:32.879Z,9.5
2022-11-25T18:20:33.935Z,9.5
2022-11-25T18:30:34.391Z,9.5
2022-11-25T18:40:34.857Z,9.4
2022-11-25T18:50:35.523Z,9.4
2022-11-25T19:00:36.069Z,9.3
2022-11-25T19:10:36.649Z,9.2
2022-11-25T19:20:37.695Z,9.1
2022-11-25T19:30:37.855Z,9.1
2022-11-25T19:40:39.532Z,9.1
2022-11-25T19:50:39.417Z,9
2022-11-25T20:00:40.230Z,8.8
2022-11-25T20:10:40.664Z,8.7
2022-11-25T20:30:41.853Z,8.4
2022-11-25T20:40:42.171Z,8.2
2022-11-25T20:50:42.807Z,8
2022-11-25T21:10:43.916Z,7.7
2022-11-25T21:20:44.172Z,7.7
2022-11-25T21:30:45.015Z,7.4
2022-11-25T21:40:45.400Z,7.3
2022-11-25T21:50:46.366Z,7.2
2022-11-25T22:00:47.391Z,7
2022-11-25T22:10:48.256Z,7
2022-11-25T22:20:53.185Z,7.1
2022-11-25T22:30:50.337Z,7
2022-11-25T22:40:51.162Z,7
2022-11-25T22:50:51.891Z,6.8
2022-11-25T23:00:52.640Z,6.7
2022-11-25T23:10:53.576Z,6.6
2022-11-25T23:20:53.720Z,6.4
2022-11-25T23:30:54.152Z,6.1
2022-11-25T23:40:55.069Z,5.9
2022-11-25T23:50:55.283Z,5.8
2022-11-25T23:51:17.195Z,5.8
